sensor_id;sensor_type;location;lat;lon;timestamp;P1;durP1;ratioP1;P2;durP2;ratioP2
49464;SDS011;35358;49.342;8.802;2022-09-24T00:01:25;7.85;;;4.10;;
49464;SDS011;35358;49.342;8.802;2022-09-24T00:03:54;4.30;;;3.55;;
49464;SDS011;35358;49.342;8.802;2022-09-24T00:06:22;9.20;;;3.90;;
49464;SDS011;35358;49.342;8.802;2022-09-24T00:08:50;5.65;;;4.10;;
49464;SDS011;35358;49.342;8.802;2022-09-24T00:11:19;5.47;;;3.85;;
49464;SDS011;35358;49.342;8.802;2022-09-24T00:13:46;6.45;;;3.72;;
49464;SDS011;35358;49.342;8.802;2022-09-24T00:16:15;4.32;;;3.72;;
49464;SDS011;35358;49.342;8.802;2022-09-24T00:18:44;6.93;;;4.00;;
49464;SDS011;35358;49.342;8.802;2022-09-24T00:23:47;6.13;;;4.07;;
49464;SDS011;35358;49.342;8.802;2022-09-24T00:26:14;4.47;;;3.72;;
49464;SDS011;35358;49.342;8.802;2022-09-24T00:28:58;5.35;;;4.25;;
49464;SDS011;35358;49.342;8.802;2022-09-24T00:31:24;4.95;;;3.95;;
49464;SDS011;35358;49.342;8.802;2022-09-24T00:33:51;7.30;;;4.20;;
49464;SDS011;35358;49.342;8.802;2022-09-24T00:36:18;8.82;;;3.92;;
49464;SDS011;35358;49.342;8.802;2022-09-24T00:38:46;8.27;;;4.28;;
49464;SDS011;35358;49.342;8.802;2022-09-24T00:41:15;6.25;;;4.03;;
49464;SDS011;35358;49.342;8.802;2022-09-24T00:43:43;6.35;;;3.97;;
49464;SDS011;35358;49.342;8.802;2022-09-24T00:48:53;9.63;;;3.88;;
49464;SDS011;35358;49.342;8.802;2022-09-24T00:51:27;7.35;;;4.10;;
49464;SDS011;35358;49.342;8.802;2022-09-24T00:53:58;6.75;;;4.43;;
49464;SDS011;35358;49.342;8.802;2022-09-24T00:56:28;9.27;;;4.28;;
49464;SDS011;35358;49.342;8.802;2022-09-24T00:58:56;8.00;;;4.63;;
49464;SDS011;35358;49.342;8.802;2022-09-24T01:01:26;6.57;;;4.13;;
49464;SDS011;35358;49.342;8.802;2022-09-24T01:03:54;6.47;;;4.53;;
49464;SDS011;35358;49.342;8.802;2022-09-24T01:06:21;6.55;;;4.45;;
49464;SDS011;35358;49.342;8.802;2022-09-24T01:08:49;6.68;;;4.65;;
49464;SDS011;35358;49.342;8.802;2022-09-24T01:14:00;5.78;;;3.75;;
49464;SDS011;35358;49.342;8.802;2022-09-24T01:19:08;4.75;;;4.25;;
49464;SDS011;35358;49.342;8.802;2022-09-24T01:22:01;5.13;;;3.95;;
49464;SDS011;35358;49.342;8.802;2022-09-24T01:24:55;6.72;;;4.45;;
49464;SDS011;35358;49.342;8.802;2022-09-24T01:27:38;10.90;;;4.68;;
49464;SDS011;35358;49.342;8.802;2022-09-24T01:30:29;6.35;;;4.05;;
49464;SDS011;35358;49.342;8.802;2022-09-24T01:33:02;6.30;;;4.00;;
49464;SDS011;35358;49.342;8.802;2022-09-24T01:35:35;5.28;;;4.20;;
49464;SDS011;35358;49.342;8.802;2022-09-24T01:41:06;6.93;;;4.22;;
49464;SDS011;35358;49.342;8.802;2022-09-24T01:43:35;4.97;;;3.97;;
49464;SDS011;35358;49.342;8.802;2022-09-24T01:46:01;8.73;;;4.85;;
49464;SDS011;35358;49.342;8.802;2022-09-24T01:48:30;11.20;;;4.03;;
49464;SDS011;35358;49.342;8.802;2022-09-24T01:51:08;6.50;;;4.25;;
49464;SDS011;35358;49.342;8.802;2022-09-24T01:53:46;5.43;;;4.18;;
49464;SDS011;35358;49.342;8.802;2022-09-24T01:56:35;5.43;;;4.72;;
49464;SDS011;35358;49.342;8.802;2022-09-24T01:59:25;5.40;;;4.38;;
49464;SDS011;35358;49.342;8.802;2022-09-24T02:02:01;5.75;;;4.05;;
49464;SDS011;35358;49.342;8.802;2022-09-24T02:04:32;5.80;;;4.22;;
49464;SDS011;35358;49.342;8.802;2022-09-24T02:07:12;5.72;;;4.45;;
49464;SDS011;35358;49.342;8.802;2022-09-24T02:09:47;7.65;;;4.82;;
49464;SDS011;35358;49.342;8.802;2022-09-24T02:14:52;4.25;;;3.53;;
49464;SDS011;35358;49.342;8.802;2022-09-24T02:17:23;6.07;;;4.38;;
49464;SDS011;35358;49.342;8.802;2022-09-24T02:19:55;7.60;;;4.13;;
49464;SDS011;35358;49.342;8.802;2022-09-24T02:22:25;5.22;;;4.20;;
49464;SDS011;35358;49.342;8.802;2022-09-24T02:24:52;7.28;;;4.43;;
49464;SDS011;35358;49.342;8.802;2022-09-24T02:29:48;5.18;;;4.38;;
49464;SDS011;35358;49.342;8.802;2022-09-24T02:32:17;6.68;;;3.80;;
49464;SDS011;35358;49.342;8.802;2022-09-24T02:34:49;5.95;;;4.20;;
49464;SDS011;35358;49.342;8.802;2022-09-24T02:37:18;7.00;;;3.95;;
49464;SDS011;35358;49.342;8.802;2022-09-24T02:39:47;6.03;;;3.85;;
49464;SDS011;35358;49.342;8.802;2022-09-24T02:42:14;4.85;;;4.32;;
49464;SDS011;35358;49.342;8.802;2022-09-24T02:44:43;6.63;;;4.15;;
49464;SDS011;35358;49.342;8.802;2022-09-24T02:47:08;4.97;;;3.83;;
49464;SDS011;35358;49.342;8.802;2022-09-24T02:49:34;4.22;;;3.70;;
49464;SDS011;35358;49.342;8.802;2022-09-24T02:52:00;9.52;;;5.13;;
49464;SDS011;35358;49.342;8.802;2022-09-24T02:54:26;7.88;;;4.50;;
49464;SDS011;35358;49.342;8.802;2022-09-24T02:56:51;4.68;;;4.15;;
49464;SDS011;35358;49.342;8.802;2022-09-24T02:59:19;6.30;;;3.53;;
49464;SDS011;35358;49.342;8.802;2022-09-24T03:01:47;6.47;;;4.68;;
49464;SDS011;35358;49.342;8.802;2022-09-24T03:04:14;4.75;;;3.72;;
49464;SDS011;35358;49.342;8.802;2022-09-24T03:06:42;5.47;;;4.20;;
49464;SDS011;35358;49.342;8.802;2022-09-24T03:09:10;6.40;;;3.85;;
49464;SDS011;35358;49.342;8.802;2022-09-24T03:11:39;4.80;;;4.05;;
49464;SDS011;35358;49.342;8.802;2022-09-24T03:14:05;4.65;;;4.07;;
49464;SDS011;35358;49.342;8.802;2022-09-24T03:16:33;6.32;;;4.13;;
49464;SDS011;35358;49.342;8.802;2022-09-24T03:18:58;4.75;;;3.90;;
49464;SDS011;35358;49.342;8.802;2022-09-24T03:21:24;5.85;;;4.15;;
49464;SDS011;35358;49.342;8.802;2022-09-24T03:23:52;6.03;;;4.82;;
49464;SDS011;35358;49.342;8.802;2022-09-24T03:26:20;6.55;;;4.03;;
49464;SDS011;35358;49.342;8.802;2022-09-24T03:28:48;5.05;;;4.30;;
49464;SDS011;35358;49.342;8.802;2022-09-24T03:31:13;5.43;;;4.65;;
49464;SDS011;35358;49.342;8.802;2022-09-24T03:33:42;7.13;;;4.38;;
49464;SDS011;35358;49.342;8.802;2022-09-24T03:36:14;6.30;;;4.60;;
49464;SDS011;35358;49.342;8.802;2022-09-24T03:38:45;13.60;;;4.40;;
49464;SDS011;35358;49.342;8.802;2022-09-24T03:41:12;5.35;;;4.78;;
49464;SDS011;35358;49.342;8.802;2022-09-24T03:43:41;6.72;;;4.72;;
49464;SDS011;35358;49.342;8.802;2022-09-24T03:46:09;8.18;;;4.35;;
49464;SDS011;35358;49.342;8.802;2022-09-24T03:48:36;6.57;;;4.85;;
49464;SDS011;35358;49.342;8.802;2022-09-24T03:51:07;4.85;;;4.30;;
49464;SDS011;35358;49.342;8.802;2022-09-24T03:55:58;7.75;;;3.97;;
49464;SDS011;35358;49.342;8.802;2022-09-24T03:58:26;6.75;;;3.90;;
49464;SDS011;35358;49.342;8.802;2022-09-24T04:00:53;7.07;;;3.72;;
49464;SDS011;35358;49.342;8.802;2022-09-24T04:03:22;6.32;;;4.10;;
49464;SDS011;35358;49.342;8.802;2022-09-24T04:05:50;7.85;;;4.03;;
49464;SDS011;35358;49.342;8.802;2022-09-24T04:08:18;7.10;;;3.90;;
49464;SDS011;35358;49.342;8.802;2022-09-24T04:10:45;7.10;;;3.90;;
49464;SDS011;35358;49.342;8.802;2022-09-24T04:13:11;4.65;;;4.00;;
49464;SDS011;35358;49.342;8.802;2022-09-24T04:15:37;5.00;;;3.83;;
49464;SDS011;35358;49.342;8.802;2022-09-24T04:18:07;5.05;;;3.90;;
49464;SDS011;35358;49.342;8.802;2022-09-24T04:20:33;6.10;;;4.30;;
49464;SDS011;35358;49.342;8.802;2022-09-24T04:22:59;6.50;;;3.90;;
49464;SDS011;35358;49.342;8.802;2022-09-24T04:25:30;4.93;;;3.97;;
49464;SDS011;35358;49.342;8.802;2022-09-24T04:27:58;6.35;;;3.90;;
49464;SDS011;35358;49.342;8.802;2022-09-24T04:30:25;5.05;;;3.78;;
49464;SDS011;35358;49.342;8.802;2022-09-24T04:32:51;4.70;;;4.07;;
49464;SDS011;35358;49.342;8.802;2022-09-24T04:35:17;7.25;;;4.50;;
49464;SDS011;35358;49.342;8.802;2022-09-24T04:37:46;7.05;;;5.07;;
49464;SDS011;35358;49.342;8.802;2022-09-24T04:40:15;7.32;;;4.43;;
49464;SDS011;35358;49.342;8.802;2022-09-24T04:42:41;7.32;;;4.05;;
49464;SDS011;35358;49.342;8.802;2022-09-24T04:45:11;7.60;;;4.68;;
49464;SDS011;35358;49.342;8.802;2022-09-24T04:47:40;8.83;;;4.33;;
49464;SDS011;35358;49.342;8.802;2022-09-24T04:50:08;5.20;;;4.10;;
49464;SDS011;35358;49.342;8.802;2022-09-24T04:52:35;5.03;;;3.95;;
49464;SDS011;35358;49.342;8.802;2022-09-24T04:55:01;5.32;;;4.55;;
49464;SDS011;35358;49.342;8.802;2022-09-24T04:57:30;4.70;;;3.75;;
49464;SDS011;35358;49.342;8.802;2022-09-24T05:00:00;5.60;;;4.53;;
49464;SDS011;35358;49.342;8.802;2022-09-24T05:02:26;5.60;;;4.45;;
49464;SDS011;35358;49.342;8.802;2022-09-24T05:04:52;5.63;;;4.30;;
49464;SDS011;35358;49.342;8.802;2022-09-24T05:07:17;6.55;;;4.30;;
49464;SDS011;35358;49.342;8.802;2022-09-24T05:09:45;6.18;;;4.72;;
49464;SDS011;35358;49.342;8.802;2022-09-24T05:12:15;5.82;;;4.30;;
49464;SDS011;35358;49.342;8.802;2022-09-24T05:14:45;6.63;;;4.50;;
49464;SDS011;35358;49.342;8.802;2022-09-24T05:17:13;6.05;;;4.45;;
49464;SDS011;35358;49.342;8.802;2022-09-24T05:19:39;7.18;;;4.82;;
49464;SDS011;35358;49.342;8.802;2022-09-24T05:22:04;6.22;;;5.50;;
49464;SDS011;35358;49.342;8.802;2022-09-24T05:24:32;9.43;;;5.10;;
49464;SDS011;35358;49.342;8.802;2022-09-24T05:26:58;7.25;;;5.30;;
49464;SDS011;35358;49.342;8.802;2022-09-24T05:29:38;6.35;;;4.43;;
49464;SDS011;35358;49.342;8.802;2022-09-24T05:32:08;10.35;;;7.75;;
49464;SDS011;35358;49.342;8.802;2022-09-24T05:34:38;6.50;;;5.60;;
49464;SDS011;35358;49.342;8.802;2022-09-24T05:37:05;7.35;;;5.00;;
49464;SDS011;35358;49.342;8.802;2022-09-24T05:39:31;6.55;;;5.18;;
49464;SDS011;35358;49.342;8.802;2022-09-24T05:41:57;6.32;;;5.00;;
49464;SDS011;35358;49.342;8.802;2022-09-24T05:44:22;6.80;;;5.72;;
49464;SDS011;35358;49.342;8.802;2022-09-24T05:46:51;6.40;;;5.28;;
49464;SDS011;35358;49.342;8.802;2022-09-24T05:49:16;11.00;;;5.53;;
49464;SDS011;35358;49.342;8.802;2022-09-24T05:51:42;7.00;;;5.10;;
49464;SDS011;35358;49.342;8.802;2022-09-24T05:54:08;5.20;;;4.70;;
49464;SDS011;35358;49.342;8.802;2022-09-24T05:56:36;7.22;;;5.72;;
49464;SDS011;35358;49.342;8.802;2022-09-24T05:59:02;7.97;;;4.82;;
49464;SDS011;35358;49.342;8.802;2022-09-24T06:01:28;6.63;;;5.68;;
49464;SDS011;35358;49.342;8.802;2022-09-24T06:03:56;6.68;;;5.65;;
49464;SDS011;35358;49.342;8.802;2022-09-24T06:06:27;6.00;;;5.40;;
49464;SDS011;35358;49.342;8.802;2022-09-24T06:08:53;5.68;;;5.10;;
49464;SDS011;35358;49.342;8.802;2022-09-24T06:11:19;6.65;;;5.50;;
49464;SDS011;35358;49.342;8.802;2022-09-24T06:13:46;8.02;;;5.72;;
49464;SDS011;35358;49.342;8.802;2022-09-24T06:16:17;12.27;;;6.40;;
49464;SDS011;35358;49.342;8.802;2022-09-24T06:18:43;7.43;;;5.15;;
49464;SDS011;35358;49.342;8.802;2022-09-24T06:21:13;9.68;;;5.88;;
49464;SDS011;35358;49.342;8.802;2022-09-24T06:23:41;6.85;;;5.97;;
49464;SDS011;35358;49.342;8.802;2022-09-24T06:26:10;7.53;;;4.78;;
49464;SDS011;35358;49.342;8.802;2022-09-24T06:28:37;12.70;;;5.30;;
49464;SDS011;35358;49.342;8.802;2022-09-24T06:33:33;35.22;;;7.55;;
49464;SDS011;35358;49.342;8.802;2022-09-24T06:35:59;11.05;;;6.65;;
49464;SDS011;35358;49.342;8.802;2022-09-24T06:38:27;10.95;;;6.57;;
49464;SDS011;35358;49.342;8.802;2022-09-24T06:40:57;10.95;;;7.25;;
49464;SDS011;35358;49.342;8.802;2022-09-24T06:43:25;8.35;;;6.60;;
49464;SDS011;35358;49.342;8.802;2022-09-24T06:45:53;12.02;;;5.78;;
49464;SDS011;35358;49.342;8.802;2022-09-24T06:48:20;7.82;;;5.80;;
49464;SDS011;35358;49.342;8.802;2022-09-24T06:50:46;6.47;;;5.57;;
49464;SDS011;35358;49.342;8.802;2022-09-24T06:53:12;7.43;;;5.22;;
49464;SDS011;35358;49.342;8.802;2022-09-24T06:55:38;10.65;;;5.72;;
49464;SDS011;35358;49.342;8.802;2022-09-24T06:58:37;7.40;;;5.28;;
49464;SDS011;35358;49.342;8.802;2022-09-24T07:00:57;8.63;;;7.25;;
49464;SDS011;35358;49.342;8.802;2022-09-24T07:03:27;15.32;;;10.57;;
49464;SDS011;35358;49.342;8.802;2022-09-24T07:06:03;15.73;;;10.95;;
49464;SDS011;35358;49.342;8.802;2022-09-24T07:08:32;14.73;;;7.88;;
49464;SDS011;35358;49.342;8.802;2022-09-24T07:10:57;9.35;;;6.55;;
49464;SDS011;35358;49.342;8.802;2022-09-24T07:13:24;10.45;;;6.38;;
49464;SDS011;35358;49.342;8.802;2022-09-24T07:15:50;8.38;;;5.80;;
49464;SDS011;35358;49.342;8.802;2022-09-24T07:18:21;12.73;;;5.97;;
49464;SDS011;35358;49.342;8.802;2022-09-24T07:20:51;6.20;;;5.07;;
49464;SDS011;35358;49.342;8.802;2022-09-24T07:23:20;7.03;;;5.55;;
49464;SDS011;35358;49.342;8.802;2022-09-24T07:25:47;6.85;;;6.20;;
49464;SDS011;35358;49.342;8.802;2022-09-24T07:28:13;6.65;;;5.20;;
49464;SDS011;35358;49.342;8.802;2022-09-24T07:30:43;8.77;;;5.32;;
49464;SDS011;35358;49.342;8.802;2022-09-24T07:33:09;8.02;;;5.50;;
49464;SDS011;35358;49.342;8.802;2022-09-24T07:35:38;6.07;;;4.80;;
49464;SDS011;35358;49.342;8.802;2022-09-24T07:38:05;6.15;;;5.30;;
49464;SDS011;35358;49.342;8.802;2022-09-24T07:40:36;6.22;;;5.10;;
49464;SDS011;35358;49.342;8.802;2022-09-24T07:43:01;7.55;;;5.00;;
49464;SDS011;35358;49.342;8.802;2022-09-24T07:45:30;7.65;;;5.57;;
49464;SDS011;35358;49.342;8.802;2022-09-24T07:47:56;7.13;;;4.70;;
49464;SDS011;35358;49.342;8.802;2022-09-24T07:50:25;6.95;;;4.82;;
49464;SDS011;35358;49.342;8.802;2022-09-24T07:52:51;5.63;;;5.13;;
49464;SDS011;35358;49.342;8.802;2022-09-24T07:55:20;5.83;;;5.23;;
49464;SDS011;35358;49.342;8.802;2022-09-24T07:57:50;6.13;;;4.93;;
49464;SDS011;35358;49.342;8.802;2022-09-24T08:00:17;7.10;;;4.95;;
49464;SDS011;35358;49.342;8.802;2022-09-24T08:02:44;7.22;;;5.30;;
49464;SDS011;35358;49.342;8.802;2022-09-24T08:05:11;5.07;;;4.28;;
49464;SDS011;35358;49.342;8.802;2022-09-24T08:07:41;5.63;;;4.93;;
49464;SDS011;35358;49.342;8.802;2022-09-24T08:10:07;6.28;;;4.72;;
49464;SDS011;35358;49.342;8.802;2022-09-24T08:12:33;5.05;;;4.55;;
49464;SDS011;35358;49.342;8.802;2022-09-24T08:14:59;4.72;;;4.32;;
49464;SDS011;35358;49.342;8.802;2022-09-24T08:17:27;6.57;;;5.38;;
49464;SDS011;35358;49.342;8.802;2022-09-24T08:19:52;7.10;;;5.10;;
49464;SDS011;35358;49.342;8.802;2022-09-24T08:22:21;5.90;;;4.72;;
49464;SDS011;35358;49.342;8.802;2022-09-24T08:24:48;12.75;;;5.47;;
49464;SDS011;35358;49.342;8.802;2022-09-24T08:27:14;10.75;;;5.57;;
49464;SDS011;35358;49.342;8.802;2022-09-24T08:29:41;9.18;;;6.47;;
49464;SDS011;35358;49.342;8.802;2022-09-24T08:32:06;8.48;;;6.38;;
49464;SDS011;35358;49.342;8.802;2022-09-24T08:34:34;8.90;;;6.35;;
49464;SDS011;35358;49.342;8.802;2022-09-24T08:37:03;8.38;;;6.18;;
49464;SDS011;35358;49.342;8.802;2022-09-24T08:39:30;10.50;;;6.82;;
49464;SDS011;35358;49.342;8.802;2022-09-24T08:42:00;8.27;;;6.78;;
49464;SDS011;35358;49.342;8.802;2022-09-24T09:00:58;9.90;;;8.05;;
49464;SDS011;35358;49.342;8.802;2022-09-24T09:11:41;8.98;;;7.68;;
49464;SDS011;35358;49.342;8.802;2022-09-24T09:16:47;11.00;;;8.18;;
49464;SDS011;35358;49.342;8.802;2022-09-24T09:19:17;10.07;;;7.03;;
49464;SDS011;35358;49.342;8.802;2022-09-24T09:21:48;9.35;;;7.45;;
49464;SDS011;35358;49.342;8.802;2022-09-24T09:24:20;11.80;;;7.47;;
49464;SDS011;35358;49.342;8.802;2022-09-24T09:26:51;9.27;;;6.88;;
49464;SDS011;35358;49.342;8.802;2022-09-24T09:29:22;10.13;;;7.93;;
49464;SDS011;35358;49.342;8.802;2022-09-24T09:34:42;10.23;;;7.65;;
49464;SDS011;35358;49.342;8.802;2022-09-24T09:42:47;15.15;;;9.40;;
49464;SDS011;35358;49.342;8.802;2022-09-24T09:45:23;14.77;;;8.07;;
49464;SDS011;35358;49.342;8.802;2022-09-24T09:47:57;14.73;;;8.90;;
49464;SDS011;35358;49.342;8.802;2022-09-24T09:50:27;13.60;;;7.65;;
49464;SDS011;35358;49.342;8.802;2022-09-24T09:53:03;10.23;;;6.97;;
49464;SDS011;35358;49.342;8.802;2022-09-24T09:55:41;9.93;;;8.25;;
49464;SDS011;35358;49.342;8.802;2022-09-24T10:00:42;7.32;;;6.32;;
49464;SDS011;35358;49.342;8.802;2022-09-24T10:06:07;10.65;;;8.35;;
49464;SDS011;35358;49.342;8.802;2022-09-24T10:08:35;12.65;;;7.70;;
49464;SDS011;35358;49.342;8.802;2022-09-24T10:11:01;13.07;;;8.55;;
49464;SDS011;35358;49.342;8.802;2022-09-24T10:13:27;9.77;;;6.60;;
49464;SDS011;35358;49.342;8.802;2022-09-24T10:15:59;9.70;;;7.45;;
49464;SDS011;35358;49.342;8.802;2022-09-24T10:21:11;7.43;;;6.55;;
49464;SDS011;35358;49.342;8.802;2022-09-24T10:23:58;8.80;;;5.93;;
49464;SDS011;35358;49.342;8.802;2022-09-24T10:26:33;8.38;;;6.03;;
49464;SDS011;35358;49.342;8.802;2022-09-24T10:29:00;8.18;;;6.30;;
49464;SDS011;35358;49.342;8.802;2022-09-24T10:31:47;10.93;;;6.65;;
49464;SDS011;35358;49.342;8.802;2022-09-24T10:34:17;6.43;;;5.18;;
49464;SDS011;35358;49.342;8.802;2022-09-24T10:36:52;6.68;;;4.03;;
49464;SDS011;35358;49.342;8.802;2022-09-24T10:39:25;9.90;;;3.90;;
49464;SDS011;35358;49.342;8.802;2022-09-24T10:41:53;4.75;;;3.90;;
49464;SDS011;35358;49.342;8.802;2022-09-24T10:49:39;6.10;;;3.97;;
49464;SDS011;35358;49.342;8.802;2022-09-24T10:52:43;7.30;;;3.63;;
49464;SDS011;35358;49.342;8.802;2022-09-24T10:57:52;4.32;;;3.25;;
49464;SDS011;35358;49.342;8.802;2022-09-24T11:05:48;6.47;;;3.67;;
49464;SDS011;35358;49.342;8.802;2022-09-24T11:11:13;4.10;;;3.65;;
49464;SDS011;35358;49.342;8.802;2022-09-24T11:22:13;6.72;;;3.78;;
49464;SDS011;35358;49.342;8.802;2022-09-24T11:32:45;6.20;;;3.08;;
49464;SDS011;35358;49.342;8.802;2022-09-24T11:35:35;4.25;;;3.33;;
49464;SDS011;35358;49.342;8.802;2022-09-24T11:46:54;6.40;;;4.07;;
49464;SDS011;35358;49.342;8.802;2022-09-24T11:55:18;4.97;;;3.83;;
49464;SDS011;35358;49.342;8.802;2022-09-24T12:01:43;5.07;;;3.58;;
49464;SDS011;35358;49.342;8.802;2022-09-24T12:07:09;10.25;;;4.63;;
49464;SDS011;35358;49.342;8.802;2022-09-24T12:12:20;5.28;;;4.00;;
49464;SDS011;35358;49.342;8.802;2022-09-24T12:14:55;4.90;;;3.80;;
49464;SDS011;35358;49.342;8.802;2022-09-24T12:17:32;4.90;;;3.95;;
49464;SDS011;35358;49.342;8.802;2022-09-24T12:20:10;4.15;;;3.58;;
49464;SDS011;35358;49.342;8.802;2022-09-24T12:22:44;6.25;;;3.92;;
49464;SDS011;35358;49.342;8.802;2022-09-24T12:25:17;5.40;;;3.60;;
49464;SDS011;35358;49.342;8.802;2022-09-24T12:27:44;9.63;;;4.55;;
49464;SDS011;35358;49.342;8.802;2022-09-24T12:30:17;6.30;;;3.95;;
49464;SDS011;35358;49.342;8.802;2022-09-24T12:38:39;5.00;;;3.63;;
49464;SDS011;35358;49.342;8.802;2022-09-24T12:46:48;7.07;;;3.67;;
49464;SDS011;35358;49.342;8.802;2022-09-24T12:51:55;6.18;;;3.50;;
49464;SDS011;35358;49.342;8.802;2022-09-24T12:54:23;8.55;;;3.83;;
49464;SDS011;35358;49.342;8.802;2022-09-24T12:57:03;5.97;;;3.30;;
49464;SDS011;35358;49.342;8.802;2022-09-24T12:59:32;7.13;;;3.25;;
49464;SDS011;35358;49.342;8.802;2022-09-24T13:02:19;4.93;;;3.05;;
49464;SDS011;35358;49.342;8.802;2022-09-24T13:10:08;5.28;;;3.33;;
49464;SDS011;35358;49.342;8.802;2022-09-24T13:12:45;6.10;;;4.07;;
49464;SDS011;35358;49.342;8.802;2022-09-24T13:15:25;5.25;;;3.80;;
49464;SDS011;35358;49.342;8.802;2022-09-24T13:18:00;6.32;;;4.18;;
49464;SDS011;35358;49.342;8.802;2022-09-24T13:20:43;5.05;;;4.00;;
49464;SDS011;35358;49.342;8.802;2022-09-24T13:25:59;6.30;;;4.00;;
49464;SDS011;35358;49.342;8.802;2022-09-24T13:28:36;6.15;;;4.05;;
49464;SDS011;35358;49.342;8.802;2022-09-24T13:31:13;8.85;;;4.40;;
49464;SDS011;35358;49.342;8.802;2022-09-24T13:33:57;6.28;;;4.65;;
49464;SDS011;35358;49.342;8.802;2022-09-24T13:36:43;6.60;;;4.30;;
49464;SDS011;35358;49.342;8.802;2022-09-24T13:39:26;6.32;;;4.03;;
49464;SDS011;35358;49.342;8.802;2022-09-24T13:45:09;8.93;;;4.22;;
49464;SDS011;35358;49.342;8.802;2022-09-24T13:47:44;8.32;;;3.83;;
49464;SDS011;35358;49.342;8.802;2022-09-24T13:56:13;17.42;;;8.18;;
49464;SDS011;35358;49.342;8.802;2022-09-24T13:58:43;13.80;;;6.03;;
49464;SDS011;35358;49.342;8.802;2022-09-24T14:03:55;12.05;;;6.13;;
49464;SDS011;35358;49.342;8.802;2022-09-24T14:06:35;8.77;;;4.47;;
49464;SDS011;35358;49.342;8.802;2022-09-24T14:09:13;8.05;;;4.65;;
49464;SDS011;35358;49.342;8.802;2022-09-24T14:11:50;5.25;;;4.18;;
49464;SDS011;35358;49.342;8.802;2022-09-24T14:14:18;8.55;;;4.55;;
49464;SDS011;35358;49.342;8.802;2022-09-24T14:16:47;9.40;;;4.32;;
49464;SDS011;35358;49.342;8.802;2022-09-24T14:19:21;7.03;;;3.78;;
49464;SDS011;35358;49.342;8.802;2022-09-24T14:21:52;7.25;;;4.10;;
49464;SDS011;35358;49.342;8.802;2022-09-24T14:26:57;6.63;;;3.92;;
49464;SDS011;35358;49.342;8.802;2022-09-24T14:29:36;6.28;;;3.67;;
49464;SDS011;35358;49.342;8.802;2022-09-24T14:32:17;4.82;;;3.72;;
49464;SDS011;35358;49.342;8.802;2022-09-24T14:34:54;5.07;;;3.72;;
49464;SDS011;35358;49.342;8.802;2022-09-24T14:37:26;5.35;;;3.65;;
49464;SDS011;35358;49.342;8.802;2022-09-24T14:39:57;6.32;;;3.50;;
49464;SDS011;35358;49.342;8.802;2022-09-24T14:42:37;4.63;;;3.53;;
49464;SDS011;35358;49.342;8.802;2022-09-24T14:45:17;5.05;;;3.72;;
49464;SDS011;35358;49.342;8.802;2022-09-24T14:47:58;5.70;;;3.58;;
49464;SDS011;35358;49.342;8.802;2022-09-24T14:50:40;5.10;;;3.40;;
49464;SDS011;35358;49.342;8.802;2022-09-24T14:55:47;5.57;;;4.20;;
49464;SDS011;35358;49.342;8.802;2022-09-24T15:01:00;7.93;;;3.55;;
49464;SDS011;35358;49.342;8.802;2022-09-24T15:06:23;13.90;;;6.13;;
49464;SDS011;35358;49.342;8.802;2022-09-24T15:08:58;5.60;;;4.13;;
49464;SDS011;35358;49.342;8.802;2022-09-24T15:11:30;3.92;;;3.53;;
49464;SDS011;35358;49.342;8.802;2022-09-24T15:14:11;6.07;;;3.72;;
49464;SDS011;35358;49.342;8.802;2022-09-24T15:16:44;6.03;;;3.95;;
49464;SDS011;35358;49.342;8.802;2022-09-24T15:21:39;7.20;;;4.20;;
49464;SDS011;35358;49.342;8.802;2022-09-24T15:24:05;11.63;;;5.13;;
49464;SDS011;35358;49.342;8.802;2022-09-24T15:26:34;8.73;;;4.03;;
49464;SDS011;35358;49.342;8.802;2022-09-24T15:31:30;7.50;;;3.45;;
49464;SDS011;35358;49.342;8.802;2022-09-24T15:33:57;6.85;;;3.63;;
49464;SDS011;35358;49.342;8.802;2022-09-24T15:36:25;8.40;;;3.70;;
49464;SDS011;35358;49.342;8.802;2022-09-24T15:38:51;4.22;;;3.28;;
49464;SDS011;35358;49.342;8.802;2022-09-24T15:41:22;5.70;;;3.15;;
49464;SDS011;35358;49.342;8.802;2022-09-24T15:43:49;6.40;;;3.63;;
49464;SDS011;35358;49.342;8.802;2022-09-24T15:46:20;7.78;;;3.45;;
49464;SDS011;35358;49.342;8.802;2022-09-24T15:48:48;4.82;;;3.47;;
49464;SDS011;35358;49.342;8.802;2022-09-24T15:51:17;4.18;;;3.22;;
49464;SDS011;35358;49.342;8.802;2022-09-24T15:53:45;5.87;;;4.17;;
49464;SDS011;35358;49.342;8.802;2022-09-24T15:56:18;7.85;;;3.97;;
49464;SDS011;35358;49.342;8.802;2022-09-24T15:58:43;6.38;;;3.60;;
49464;SDS011;35358;49.342;8.802;2022-09-24T16:01:15;4.25;;;3.30;;
49464;SDS011;35358;49.342;8.802;2022-09-24T16:03:46;9.18;;;4.07;;
49464;SDS011;35358;49.342;8.802;2022-09-24T16:06:14;9.57;;;3.38;;
49464;SDS011;35358;49.342;8.802;2022-09-24T16:08:44;6.85;;;4.10;;
49464;SDS011;35358;49.342;8.802;2022-09-24T16:11:10;3.97;;;3.35;;
49464;SDS011;35358;49.342;8.802;2022-09-24T16:13:37;7.63;;;3.45;;
49464;SDS011;35358;49.342;8.802;2022-09-24T16:16:04;4.20;;;3.60;;
49464;SDS011;35358;49.342;8.802;2022-09-24T16:21:03;5.10;;;3.55;;
49464;SDS011;35358;49.342;8.802;2022-09-24T16:23:31;3.85;;;3.45;;
49464;SDS011;35358;49.342;8.802;2022-09-24T16:25:58;6.05;;;3.72;;
49464;SDS011;35358;49.342;8.802;2022-09-24T16:28:26;7.35;;;4.03;;
49464;SDS011;35358;49.342;8.802;2022-09-24T16:30:56;6.40;;;3.63;;
49464;SDS011;35358;49.342;8.802;2022-09-24T16:33:22;5.07;;;3.60;;
49464;SDS011;35358;49.342;8.802;2022-09-24T16:35:49;3.83;;;3.30;;
49464;SDS011;35358;49.342;8.802;2022-09-24T16:38:14;3.78;;;3.28;;
49464;SDS011;35358;49.342;8.802;2022-09-24T16:40:41;5.00;;;3.38;;
49464;SDS011;35358;49.342;8.802;2022-09-24T16:43:11;6.10;;;3.83;;
49464;SDS011;35358;49.342;8.802;2022-09-24T16:45:39;4.60;;;3.80;;
49464;SDS011;35358;49.342;8.802;2022-09-24T16:48:05;3.58;;;3.28;;
49464;SDS011;35358;49.342;8.802;2022-09-24T16:50:32;4.30;;;3.75;;
49464;SDS011;35358;49.342;8.802;2022-09-24T16:52:58;6.70;;;3.60;;
49464;SDS011;35358;49.342;8.802;2022-09-24T16:55:26;4.72;;;3.65;;
49464;SDS011;35358;49.342;8.802;2022-09-24T16:57:52;6.10;;;3.65;;
49464;SDS011;35358;49.342;8.802;2022-09-24T17:00:20;6.32;;;3.70;;
49464;SDS011;35358;49.342;8.802;2022-09-24T17:02:45;6.38;;;4.00;;
49464;SDS011;35358;49.342;8.802;2022-09-24T17:05:16;8.10;;;3.95;;
49464;SDS011;35358;49.342;8.802;2022-09-24T17:07:43;3.92;;;3.40;;
49464;SDS011;35358;49.342;8.802;2022-09-24T17:10:11;4.45;;;3.58;;
49464;SDS011;35358;49.342;8.802;2022-09-24T17:12:37;4.45;;;4.05;;
49464;SDS011;35358;49.342;8.802;2022-09-24T17:17:32;7.72;;;5.38;;
49464;SDS011;35358;49.342;8.802;2022-09-24T17:19:58;7.45;;;5.75;;
49464;SDS011;35358;49.342;8.802;2022-09-24T17:22:24;7.18;;;5.45;;
49464;SDS011;35358;49.342;8.802;2022-09-24T17:24:52;10.20;;;7.20;;
49464;SDS011;35358;49.342;8.802;2022-09-24T17:27:19;9.80;;;6.10;;
49464;SDS011;35358;49.342;8.802;2022-09-24T17:29:45;6.95;;;6.13;;
49464;SDS011;35358;49.342;8.802;2022-09-24T17:32:11;8.10;;;5.95;;
49464;SDS011;35358;49.342;8.802;2022-09-24T17:34:36;8.45;;;5.95;;
49464;SDS011;35358;49.342;8.802;2022-09-24T17:37:04;6.55;;;5.85;;
49464;SDS011;35358;49.342;8.802;2022-09-24T17:39:30;16.05;;;5.90;;
49464;SDS011;35358;49.342;8.802;2022-09-24T17:41:56;7.93;;;7.13;;
49464;SDS011;35358;49.342;8.802;2022-09-24T17:44:22;8.60;;;7.35;;
49464;SDS011;35358;49.342;8.802;2022-09-24T17:46:50;8.85;;;7.30;;
49464;SDS011;35358;49.342;8.802;2022-09-24T17:49:15;8.93;;;7.65;;
49464;SDS011;35358;49.342;8.802;2022-09-24T17:51:44;8.40;;;6.20;;
49464;SDS011;35358;49.342;8.802;2022-09-24T17:54:15;9.38;;;7.35;;
49464;SDS011;35358;49.342;8.802;2022-09-24T17:56:45;9.93;;;7.38;;
49464;SDS011;35358;49.342;8.802;2022-09-24T17:59:11;8.98;;;7.43;;
49464;SDS011;35358;49.342;8.802;2022-09-24T18:01:38;9.15;;;7.90;;